sensor_id;sensor_type;location;lat;lon;timestamp;P1;P2;P0
80639;PMS5003;69992;60.170;24.692;2023-06-14T00:01:06;6;6;
80639;PMS5003;69992;60.170;24.692;2023-06-14T00:03:32;7;7;
80639;PMS5003;69992;60.170;24.692;2023-06-14T00:05:57;7;7;
80639;PMS5003;69992;60.170;24.692;2023-06-14T00:08:23;7;7;
80639;PMS5003;69992;60.170;24.692;2023-06-14T00:10:49;8;7;
80639;PMS5003;69992;60.170;24.692;2023-06-14T00:13:14;4;4;
80639;PMS5003;69992;60.170;24.692;2023-06-14T00:15:40;7;7;
80639;PMS5003;69992;60.170;24.692;2023-06-14T00:18:06;8;7;
80639;PMS5003;69992;60.170;24.692;2023-06-14T00:20:32;7;6;
80639;PMS5003;69992;60.170;24.692;2023-06-14T00:22:57;6;6;
80639;PMS5003;69992;60.170;24.692;2023-06-14T00:25:23;5;5;
80639;PMS5003;69992;60.170;24.692;2023-06-14T00:27:49;5;5;
80639;PMS5003;69992;60.170;24.692;2023-06-14T00:30:14;6;5;
80639;PMS5003;69992;60.170;24.692;2023-06-14T00:32:40;6;6;
80639;PMS5003;69992;60.170;24.692;2023-06-14T00:35:06;7;7;
80639;PMS5003;69992;60.170;24.692;2023-06-14T00:37:32;7;6;
80639;PMS5003;69992;60.170;24.692;2023-06-14T00:39:57;9;9;
80639;PMS5003;69992;60.170;24.692;2023-06-14T00:42:24;7;7;
80639;PMS5003;69992;60.170;24.692;2023-06-14T00:44:49;6;6;
80639;PMS5003;69992;60.170;24.692;2023-06-14T00:47:14;8;8;
80639;PMS5003;69992;60.170;24.692;2023-06-14T00:49:40;7;7;
80639;PMS5003;69992;60.170;24.692;2023-06-14T00:52:06;6;6;
80639;PMS5003;69992;60.170;24.692;2023-06-14T00:54:32;8;8;
80639;PMS5003;69992;60.170;24.692;2023-06-14T00:56:57;6;6;
80639;PMS5003;69992;60.170;24.692;2023-06-14T00:59:23;7;6;
80639;PMS5003;69992;60.170;24.692;2023-06-14T01:01:49;6;6;
80639;PMS5003;69992;60.170;24.692;2023-06-14T01:04:14;7;7;
80639;PMS5003;69992;60.170;24.692;2023-06-14T01:06:41;7;6;
80639;PMS5003;69992;60.170;24.692;2023-06-14T01:09:07;7;7;
80639;PMS5003;69992;60.170;24.692;2023-06-14T01:11:33;7;7;
80639;PMS5003;69992;60.170;24.692;2023-06-14T01:13:57;7;7;
80639;PMS5003;69992;60.170;24.692;2023-06-14T01:16:23;7;7;
80639;PMS5003;69992;60.170;24.692;2023-06-14T01:18:49;7;7;
80639;PMS5003;69992;60.170;24.692;2023-06-14T01:21:20;7;7;
80639;PMS5003;69992;60.170;24.692;2023-06-14T01:23:40;7;6;
80639;PMS5003;69992;60.170;24.692;2023-06-14T01:26:06;6;6;
80639;PMS5003;69992;60.170;24.692;2023-06-14T01:28:32;7;7;
80639;PMS5003;69992;60.170;24.692;2023-06-14T01:30:59;7;7;
80639;PMS5003;69992;60.170;24.692;2023-06-14T01:33:24;7;7;
80639;PMS5003;69992;60.170;24.692;2023-06-14T01:35:50;7;7;
80639;PMS5003;69992;60.170;24.692;2023-06-14T01:38:15;7;7;
80639;PMS5003;69992;60.170;24.692;2023-06-14T01:40:41;10;9;
80639;PMS5003;69992;60.170;24.692;2023-06-14T01:43:06;7;7;
80639;PMS5003;69992;60.170;24.692;2023-06-14T01:45:32;5;5;
80639;PMS5003;69992;60.170;24.692;2023-06-14T01:47:58;8;8;
80639;PMS5003;69992;60.170;24.692;2023-06-14T01:50:23;9;8;
80639;PMS5003;69992;60.170;24.692;2023-06-14T01:52:49;6;6;
80639;PMS5003;69992;60.170;24.692;2023-06-14T01:55:15;7;6;
80639;PMS5003;69992;60.170;24.692;2023-06-14T01:57:41;5;5;
80639;PMS5003;69992;60.170;24.692;2023-06-14T02:00:07;6;6;
80639;PMS5003;69992;60.170;24.692;2023-06-14T02:02:32;7;7;
80639;PMS5003;69992;60.170;24.692;2023-06-14T02:04:58;7;7;
80639;PMS5003;69992;60.170;24.692;2023-06-14T02:07:24;7;7;
80639;PMS5003;69992;60.170;24.692;2023-06-14T02:09:49;8;8;
80639;PMS5003;69992;60.170;24.692;2023-06-14T02:12:15;7;7;
80639;PMS5003;69992;60.170;24.692;2023-06-14T02:14:41;7;7;
80639;PMS5003;69992;60.170;24.692;2023-06-14T02:17:07;8;8;
80639;PMS5003;69992;60.170;24.692;2023-06-14T02:19:32;9;9;
80639;PMS5003;69992;60.170;24.692;2023-06-14T02:21:58;7;6;
80639;PMS5003;69992;60.170;24.692;2023-06-14T02:24:24;8;8;
80639;PMS5003;69992;60.170;24.692;2023-06-14T02:26:49;9;9;
80639;PMS5003;69992;60.170;24.692;2023-06-14T02:29:15;10;9;
80639;PMS5003;69992;60.170;24.692;2023-06-14T02:31:40;8;8;
80639;PMS5003;69992;60.170;24.692;2023-06-14T02:34:06;8;8;
80639;PMS5003;69992;60.170;24.692;2023-06-14T02:36:32;8;7;
80639;PMS5003;69992;60.170;24.692;2023-06-14T02:38:58;7;6;
80639;PMS5003;69992;60.170;24.692;2023-06-14T02:41:23;7;7;
80639;PMS5003;69992;60.170;24.692;2023-06-14T02:43:49;8;7;
80639;PMS5003;69992;60.170;24.692;2023-06-14T02:46:15;6;6;
80639;PMS5003;69992;60.170;24.692;2023-06-14T02:48:41;9;8;
80639;PMS5003;69992;60.170;24.692;2023-06-14T02:51:06;9;8;
80639;PMS5003;69992;60.170;24.692;2023-06-14T02:53:32;9;8;
80639;PMS5003;69992;60.170;24.692;2023-06-14T02:55:58;8;8;
80639;PMS5003;69992;60.170;24.692;2023-06-14T02:58:24;6;6;
80639;PMS5003;69992;60.170;24.692;2023-06-14T03:00:49;8;7;
80639;PMS5003;69992;60.170;24.692;2023-06-14T03:03:15;8;7;
80639;PMS5003;69992;60.170;24.692;2023-06-14T03:05:41;7;6;
80639;PMS5003;69992;60.170;24.692;2023-06-14T03:08:06;8;8;
80639;PMS5003;69992;60.170;24.692;2023-06-14T03:10:32;8;7;
80639;PMS5003;69992;60.170;24.692;2023-06-14T03:12:58;8;8;
80639;PMS5003;69992;60.170;24.692;2023-06-14T03:15:24;6;6;
80639;PMS5003;69992;60.170;24.692;2023-06-14T03:17:49;7;7;
80639;PMS5003;69992;60.170;24.692;2023-06-14T03:20:15;8;8;
80639;PMS5003;69992;60.170;24.692;2023-06-14T03:22:41;8;7;
80639;PMS5003;69992;60.170;24.692;2023-06-14T03:25:07;6;6;
80639;PMS5003;69992;60.170;24.692;2023-06-14T03:27:32;8;8;
80639;PMS5003;69992;60.170;24.692;2023-06-14T03:29:58;9;9;
80639;PMS5003;69992;60.170;24.692;2023-06-14T03:32:24;7;7;
80639;PMS5003;69992;60.170;24.692;2023-06-14T03:34:49;6;6;
80639;PMS5003;69992;60.170;24.692;2023-06-14T03:37:15;13;10;
80639;PMS5003;69992;60.170;24.692;2023-06-14T03:39:40;7;7;
80639;PMS5003;69992;60.170;24.692;2023-06-14T03:42:06;7;7;
80639;PMS5003;69992;60.170;24.692;2023-06-14T03:44:32;9;7;
80639;PMS5003;69992;60.170;24.692;2023-06-14T03:46:57;5;4;
80639;PMS5003;69992;60.170;24.692;2023-06-14T03:49:23;7;7;
80639;PMS5003;69992;60.170;24.692;2023-06-14T03:51:49;6;6;
80639;PMS5003;69992;60.170;24.692;2023-06-14T03:54:14;7;7;
80639;PMS5003;69992;60.170;24.692;2023-06-14T03:56:40;8;8;
80639;PMS5003;69992;60.170;24.692;2023-06-14T03:59:06;8;8;
80639;PMS5003;69992;60.170;24.692;2023-06-14T04:01:32;5;5;
80639;PMS5003;69992;60.170;24.692;2023-06-14T04:03:57;9;9;
80639;PMS5003;69992;60.170;24.692;2023-06-14T04:06:23;8;8;
80639;PMS5003;69992;60.170;24.692;2023-06-14T04:08:49;10;9;
80639;PMS5003;69992;60.170;24.692;2023-06-14T04:11:14;7;7;
80639;PMS5003;69992;60.170;24.692;2023-06-14T04:13:40;8;7;
80639;PMS5003;69992;60.170;24.692;2023-06-14T04:16:06;7;7;
80639;PMS5003;69992;60.170;24.692;2023-06-14T04:18:31;8;7;
80639;PMS5003;69992;60.170;24.692;2023-06-14T04:20:57;8;8;
80639;PMS5003;69992;60.170;24.692;2023-06-14T04:23:23;8;8;
80639;PMS5003;69992;60.170;24.692;2023-06-14T04:25:48;9;9;
80639;PMS5003;69992;60.170;24.692;2023-06-14T04:28:14;7;7;
80639;PMS5003;69992;60.170;24.692;2023-06-14T04:30:40;9;7;
80639;PMS5003;69992;60.170;24.692;2023-06-14T04:33:05;6;6;
80639;PMS5003;69992;60.170;24.692;2023-06-14T04:35:31;10;10;
80639;PMS5003;69992;60.170;24.692;2023-06-14T04:37:57;10;9;
80639;PMS5003;69992;60.170;24.692;2023-06-14T04:40:22;9;9;
80639;PMS5003;69992;60.170;24.692;2023-06-14T04:42:48;8;8;
80639;PMS5003;69992;60.170;24.692;2023-06-14T04:45:14;8;8;
80639;PMS5003;69992;60.170;24.692;2023-06-14T04:47:39;10;10;
80639;PMS5003;69992;60.170;24.692;2023-06-14T04:50:05;8;8;
80639;PMS5003;69992;60.170;24.692;2023-06-14T04:52:30;12;9;
80639;PMS5003;69992;60.170;24.692;2023-06-14T04:54:56;7;7;
80639;PMS5003;69992;60.170;24.692;2023-06-14T04:57:21;7;7;
80639;PMS5003;69992;60.170;24.692;2023-06-14T04:59:47;7;6;
80639;PMS5003;69992;60.170;24.692;2023-06-14T05:02:13;8;8;
80639;PMS5003;69992;60.170;24.692;2023-06-14T05:04:38;8;8;
80639;PMS5003;69992;60.170;24.692;2023-06-14T05:07:04;7;7;
80639;PMS5003;69992;60.170;24.692;2023-06-14T05:09:30;7;6;
80639;PMS5003;69992;60.170;24.692;2023-06-14T05:11:55;7;7;
80639;PMS5003;69992;60.170;24.692;2023-06-14T05:14:20;7;7;
80639;PMS5003;69992;60.170;24.692;2023-06-14T05:16:46;9;8;
80639;PMS5003;69992;60.170;24.692;2023-06-14T05:19:12;9;9;
80639;PMS5003;69992;60.170;24.692;2023-06-14T05:21:37;9;9;
80639;PMS5003;69992;60.170;24.692;2023-06-14T05:24:03;8;8;
80639;PMS5003;69992;60.170;24.692;2023-06-14T05:26:28;9;9;
80639;PMS5003;69992;60.170;24.692;2023-06-14T05:28:54;9;9;
80639;PMS5003;69992;60.170;24.692;2023-06-14T05:31:20;8;8;
80639;PMS5003;69992;60.170;24.692;2023-06-14T05:33:45;11;10;
80639;PMS5003;69992;60.170;24.692;2023-06-14T05:36:11;10;9;
80639;PMS5003;69992;60.170;24.692;2023-06-14T05:38:37;10;9;
80639;PMS5003;69992;60.170;24.692;2023-06-14T05:41:02;11;10;
80639;PMS5003;69992;60.170;24.692;2023-06-14T05:43:28;9;9;
80639;PMS5003;69992;60.170;24.692;2023-06-14T05:45:53;10;10;
80639;PMS5003;69992;60.170;24.692;2023-06-14T05:48:19;8;8;
80639;PMS5003;69992;60.170;24.692;2023-06-14T05:50:44;10;10;
80639;PMS5003;69992;60.170;24.692;2023-06-14T05:53:10;11;11;
80639;PMS5003;69992;60.170;24.692;2023-06-14T05:55:36;10;10;
80639;PMS5003;69992;60.170;24.692;2023-06-14T05:58:01;10;10;
80639;PMS5003;69992;60.170;24.692;2023-06-14T06:00:27;9;9;
80639;PMS5003;69992;60.170;24.692;2023-06-14T06:02:52;11;11;
80639;PMS5003;69992;60.170;24.692;2023-06-14T06:05:18;8;7;
80639;PMS5003;69992;60.170;24.692;2023-06-14T06:07:44;12;9;
80639;PMS5003;69992;60.170;24.692;2023-06-14T06:10:09;10;10;
80639;PMS5003;69992;60.170;24.692;2023-06-14T06:12:35;10;10;
80639;PMS5003;69992;60.170;24.692;2023-06-14T06:15:00;8;8;
80639;PMS5003;69992;60.170;24.692;2023-06-14T06:17:26;9;9;
80639;PMS5003;69992;60.170;24.692;2023-06-14T06:19:51;10;10;
80639;PMS5003;69992;60.170;24.692;2023-06-14T06:22:17;9;9;
80639;PMS5003;69992;60.170;24.692;2023-06-14T06:24:43;9;9;
80639;PMS5003;69992;60.170;24.692;2023-06-14T06:27:08;11;11;
80639;PMS5003;69992;60.170;24.692;2023-06-14T06:29:34;8;8;
80639;PMS5003;69992;60.170;24.692;2023-06-14T06:31:59;8;8;
80639;PMS5003;69992;60.170;24.692;2023-06-14T06:34:24;10;9;
80639;PMS5003;69992;60.170;24.692;2023-06-14T06:36:50;7;7;
80639;PMS5003;69992;60.170;24.692;2023-06-14T06:39:16;9;9;
80639;PMS5003;69992;60.170;24.692;2023-06-14T06:41:41;7;7;
80639;PMS5003;69992;60.170;24.692;2023-06-14T06:44:07;10;9;
80639;PMS5003;69992;60.170;24.692;2023-06-14T06:46:32;10;10;
80639;PMS5003;69992;60.170;24.692;2023-06-14T06:48:58;10;10;
80639;PMS5003;69992;60.170;24.692;2023-06-14T06:51:23;11;9;
80639;PMS5003;69992;60.170;24.692;2023-06-14T06:53:52;8;7;
80639;PMS5003;69992;60.170;24.692;2023-06-14T06:56:14;10;10;
80639;PMS5003;69992;60.170;24.692;2023-06-14T06:58:40;12;10;
80639;PMS5003;69992;60.170;24.692;2023-06-14T07:01:05;9;9;
80639;PMS5003;69992;60.170;24.692;2023-06-14T07:03:31;9;9;
80639;PMS5003;69992;60.170;24.692;2023-06-14T07:05:57;8;8;
80639;PMS5003;69992;60.170;24.692;2023-06-14T07:08:22;10;10;
80639;PMS5003;69992;60.170;24.692;2023-06-14T07:10:48;11;10;
80639;PMS5003;69992;60.170;24.692;2023-06-14T07:13:13;10;10;
80639;PMS5003;69992;60.170;24.692;2023-06-14T07:15:39;9;9;
80639;PMS5003;69992;60.170;24.692;2023-06-14T07:18:04;10;9;
80639;PMS5003;69992;60.170;24.692;2023-06-14T07:20:30;10;9;
80639;PMS5003;69992;60.170;24.692;2023-06-14T07:22:55;11;11;
80639;PMS5003;69992;60.170;24.692;2023-06-14T07:25:21;9;9;
80639;PMS5003;69992;60.170;24.692;2023-06-14T07:27:46;11;10;
80639;PMS5003;69992;60.170;24.692;2023-06-14T07:30:12;9;8;
80639;PMS5003;69992;60.170;24.692;2023-06-14T07:32:37;9;9;
80639;PMS5003;69992;60.170;24.692;2023-06-14T07:35:03;9;9;
80639;PMS5003;69992;60.170;24.692;2023-06-14T07:37:28;10;10;
80639;PMS5003;69992;60.170;24.692;2023-06-14T07:39:54;8;8;
80639;PMS5003;69992;60.170;24.692;2023-06-14T07:42:19;10;10;
80639;PMS5003;69992;60.170;24.692;2023-06-14T07:44:45;8;8;
80639;PMS5003;69992;60.170;24.692;2023-06-14T07:47:10;10;10;
80639;PMS5003;69992;60.170;24.692;2023-06-14T07:49:36;9;9;
80639;PMS5003;69992;60.170;24.692;2023-06-14T07:52:01;10;9;
80639;PMS5003;69992;60.170;24.692;2023-06-14T07:54:27;8;8;
80639;PMS5003;69992;60.170;24.692;2023-06-14T07:56:52;10;10;
80639;PMS5003;69992;60.170;24.692;2023-06-14T07:59:18;8;8;
80639;PMS5003;69992;60.170;24.692;2023-06-14T08:01:44;8;8;
80639;PMS5003;69992;60.170;24.692;2023-06-14T08:04:09;9;9;
80639;PMS5003;69992;60.170;24.692;2023-06-14T08:06:34;11;10;
80639;PMS5003;69992;60.170;24.692;2023-06-14T08:09:00;8;8;
80639;PMS5003;69992;60.170;24.692;2023-06-14T08:11:25;9;9;
80639;PMS5003;69992;60.170;24.692;2023-06-14T08:13:51;10;10;
80639;PMS5003;69992;60.170;24.692;2023-06-14T08:16:16;10;9;
80639;PMS5003;69992;60.170;24.692;2023-06-14T08:18:42;9;9;
80639;PMS5003;69992;60.170;24.692;2023-06-14T08:21:07;12;12;
80639;PMS5003;69992;60.170;24.692;2023-06-14T08:23:33;9;9;
80639;PMS5003;69992;60.170;24.692;2023-06-14T08:25:58;9;8;
80639;PMS5003;69992;60.170;24.692;2023-06-14T08:28:24;10;9;
80639;PMS5003;69992;60.170;24.692;2023-06-14T08:30:49;8;8;
80639;PMS5003;69992;60.170;24.692;2023-06-14T08:33:14;9;9;
80639;PMS5003;69992;60.170;24.692;2023-06-14T08:35:40;10;9;
80639;PMS5003;69992;60.170;24.692;2023-06-14T08:38:05;9;9;
80639;PMS5003;69992;60.170;24.692;2023-06-14T08:40:31;9;9;
80639;PMS5003;69992;60.170;24.692;2023-06-14T08:42:56;8;8;
80639;PMS5003;69992;60.170;24.692;2023-06-14T08:45:22;9;8;
80639;PMS5003;69992;60.170;24.692;2023-06-14T08:47:47;10;10;
80639;PMS5003;69992;60.170;24.692;2023-06-14T08:50:13;7;7;
80639;PMS5003;69992;60.170;24.692;2023-06-14T08:52:38;8;8;
80639;PMS5003;69992;60.170;24.692;2023-06-14T08:55:03;7;7;
80639;PMS5003;69992;60.170;24.692;2023-06-14T08:57:29;10;10;
80639;PMS5003;69992;60.170;24.692;2023-06-14T08:59:54;9;8;
80639;PMS5003;69992;60.170;24.692;2023-06-14T09:02:19;8;8;
80639;PMS5003;69992;60.170;24.692;2023-06-14T09:04:45;8;8;
80639;PMS5003;69992;60.170;24.692;2023-06-14T09:07:10;8;8;
80639;PMS5003;69992;60.170;24.692;2023-06-14T09:09:38;9;9;
80639;PMS5003;69992;60.170;24.692;2023-06-14T09:12:01;7;7;
80639;PMS5003;69992;60.170;24.692;2023-06-14T09:14:27;8;7;
80639;PMS5003;69992;60.170;24.692;2023-06-14T09:16:52;8;8;
80639;PMS5003;69992;60.170;24.692;2023-06-14T09:19:21;8;8;
80639;PMS5003;69992;60.170;24.692;2023-06-14T09:21:43;8;8;
80639;PMS5003;69992;60.170;24.692;2023-06-14T09:24:12;8;8;
80639;PMS5003;69992;60.170;24.692;2023-06-14T09:26:35;9;8;
80639;PMS5003;69992;60.170;24.692;2023-06-14T09:28:59;9;8;
80639;PMS5003;69992;60.170;24.692;2023-06-14T09:31:25;9;9;
80639;PMS5003;69992;60.170;24.692;2023-06-14T09:33:50;10;10;
80639;PMS5003;69992;60.170;24.692;2023-06-14T09:36:16;10;10;
80639;PMS5003;69992;60.170;24.692;2023-06-14T09:38:41;7;7;
80639;PMS5003;69992;60.170;24.692;2023-06-14T09:41:06;14;12;
80639;PMS5003;69992;60.170;24.692;2023-06-14T09:43:32;9;8;
80639;PMS5003;69992;60.170;24.692;2023-06-14T09:45:57;8;8;
80639;PMS5003;69992;60.170;24.692;2023-06-14T09:48:22;8;8;
80639;PMS5003;69992;60.170;24.692;2023-06-14T09:50:49;6;6;
80639;PMS5003;69992;60.170;24.692;2023-06-14T09:53:13;8;8;
80639;PMS5003;69992;60.170;24.692;2023-06-14T09:55:40;6;6;
80639;PMS5003;69992;60.170;24.692;2023-06-14T09:58:05;10;10;
80639;PMS5003;69992;60.170;24.692;2023-06-14T10:00:30;7;7;
80639;PMS5003;69992;60.170;24.692;2023-06-14T10:02:55;8;8;
80639;PMS5003;69992;60.170;24.692;2023-06-14T10:05:20;7;7;
80639;PMS5003;69992;60.170;24.692;2023-06-14T10:07:48;7;7;
80639;PMS5003;69992;60.170;24.692;2023-06-14T10:10:11;8;7;
80639;PMS5003;69992;60.170;24.692;2023-06-14T10:12:36;6;6;
80639;PMS5003;69992;60.170;24.692;2023-06-14T10:15:02;6;6;
80639;PMS5003;69992;60.170;24.692;2023-06-14T10:17:29;7;7;
80639;PMS5003;69992;60.170;24.692;2023-06-14T10:19:55;8;6;
80639;PMS5003;69992;60.170;24.692;2023-06-14T10:22:19;6;6;
80639;PMS5003;69992;60.170;24.692;2023-06-14T10:24:43;5;5;
80639;PMS5003;69992;60.170;24.692;2023-06-14T10:27:08;6;6;
80639;PMS5003;69992;60.170;24.692;2023-06-14T10:29:33;6;6;
80639;PMS5003;69992;60.170;24.692;2023-06-14T10:31:59;6;6;
80639;PMS5003;69992;60.170;24.692;2023-06-14T10:34:25;6;5;
80639;PMS5003;69992;60.170;24.692;2023-06-14T10:39:15;5;4;
80639;PMS5003;69992;60.170;24.692;2023-06-14T10:41:41;4;4;
80639;PMS5003;69992;60.170;24.692;2023-06-14T10:44:10;6;6;
80639;PMS5003;69992;60.170;24.692;2023-06-14T10:46:31;6;6;
80639;PMS5003;69992;60.170;24.692;2023-06-14T10:48:57;5;5;
80639;PMS5003;69992;60.170;24.692;2023-06-14T10:51:22;6;5;
80639;PMS5003;69992;60.170;24.692;2023-06-14T10:53:48;3;3;
80639;PMS5003;69992;60.170;24.692;2023-06-14T10:58:38;2;2;
80639;PMS5003;69992;60.170;24.692;2023-06-14T11:01:03;5;4;
80639;PMS5003;69992;60.170;24.692;2023-06-14T11:03:36;2;2;
80639;PMS5003;69992;60.170;24.692;2023-06-14T11:05:54;2;2;
80639;PMS5003;69992;60.170;24.692;2023-06-14T11:08:27;5;5;
80639;PMS5003;69992;60.170;24.692;2023-06-14T11:10:45;7;5;
80639;PMS5003;69992;60.170;24.692;2023-06-14T11:13:10;5;4;
80639;PMS5003;69992;60.170;24.692;2023-06-14T11:15:36;7;7;
80639;PMS5003;69992;60.170;24.692;2023-06-14T11:18:02;4;4;
80639;PMS5003;69992;60.170;24.692;2023-06-14T11:20:27;4;4;
80639;PMS5003;69992;60.170;24.692;2023-06-14T11:22:52;4;3;
80639;PMS5003;69992;60.170;24.692;2023-06-14T11:25:17;3;3;
80639;PMS5003;69992;60.170;24.692;2023-06-14T11:27:43;4;4;
80639;PMS5003;69992;60.170;24.692;2023-06-14T11:30:08;4;4;
80639;PMS5003;69992;60.170;24.692;2023-06-14T11:32:33;4;4;
80639;PMS5003;69992;60.170;24.692;2023-06-14T11:34:59;6;6;
80639;PMS5003;69992;60.170;24.692;2023-06-14T11:37:25;5;5;
80639;PMS5003;69992;60.170;24.692;2023-06-14T11:39:49;5;5;
80639;PMS5003;69992;60.170;24.692;2023-06-14T11:42:15;5;5;
80639;PMS5003;69992;60.170;24.692;2023-06-14T11:44:40;4;4;
80639;PMS5003;69992;60.170;24.692;2023-06-14T11:47:06;6;6;
80639;PMS5003;69992;60.170;24.692;2023-06-14T11:49:34;4;4;
80639;PMS5003;69992;60.170;24.692;2023-06-14T11:51:56;3;3;
80639;PMS5003;69992;60.170;24.692;2023-06-14T11:54:22;5;5;
80639;PMS5003;69992;60.170;24.692;2023-06-14T11:56:47;4;4;
80639;PMS5003;69992;60.170;24.692;2023-06-14T11:59:13;4;4;
80639;PMS5003;69992;60.170;24.692;2023-06-14T12:01:38;5;5;
80639;PMS5003;69992;60.170;24.692;2023-06-14T12:04:03;4;4;
80639;PMS5003;69992;60.170;24.692;2023-06-14T12:06:29;3;3;
80639;PMS5003;69992;60.170;24.692;2023-06-14T12:08:55;6;5;
80639;PMS5003;69992;60.170;24.692;2023-06-14T12:11:19;6;6;
80639;PMS5003;69992;60.170;24.692;2023-06-14T12:13:45;5;5;
80639;PMS5003;69992;60.170;24.692;2023-06-14T12:16:10;4;4;
80639;PMS5003;69992;60.170;24.692;2023-06-14T12:18:35;5;5;
80639;PMS5003;69992;60.170;24.692;2023-06-14T12:21:01;3;3;
80639;PMS5003;69992;60.170;24.692;2023-06-14T12:23:26;4;4;
80639;PMS5003;69992;60.170;24.692;2023-06-14T12:25:51;5;5;
80639;PMS5003;69992;60.170;24.692;2023-06-14T12:28:16;4;4;
80639;PMS5003;69992;60.170;24.692;2023-06-14T12:30:42;5;5;
80639;PMS5003;69992;60.170;24.692;2023-06-14T12:33:07;4;4;
80639;PMS5003;69992;60.170;24.692;2023-06-14T12:35:32;4;4;
80639;PMS5003;69992;60.170;24.692;2023-06-14T12:37:58;5;5;
80639;PMS5003;69992;60.170;24.692;2023-06-14T12:40:23;5;5;
80639;PMS5003;69992;60.170;24.692;2023-06-14T12:42:48;6;5;
80639;PMS5003;69992;60.170;24.692;2023-06-14T12:45:14;6;5;
80639;PMS5003;69992;60.170;24.692;2023-06-14T12:47:39;5;5;
80639;PMS5003;69992;60.170;24.692;2023-06-14T12:50:05;5;5;
80639;PMS5003;69992;60.170;24.692;2023-06-14T12:52:29;5;5;
80639;PMS5003;69992;60.170;24.692;2023-06-14T12:54:55;5;5;
80639;PMS5003;69992;60.170;24.692;2023-06-14T12:57:20;4;4;
80639;PMS5003;69992;60.170;24.692;2023-06-14T12:59:45;5;5;
80639;PMS5003;69992;60.170;24.692;2023-06-14T13:02:12;4;4;
80639;PMS5003;69992;60.170;24.692;2023-06-14T13:04:36;6;6;
80639;PMS5003;69992;60.170;24.692;2023-06-14T13:07:01;4;4;
80639;PMS5003;69992;60.170;24.692;2023-06-14T13:09:26;6;6;
80639;PMS5003;69992;60.170;24.692;2023-06-14T13:11:52;6;6;
80639;PMS5003;69992;60.170;24.692;2023-06-14T13:14:17;5;5;
80639;PMS5003;69992;60.170;24.692;2023-06-14T13:16:42;5;5;
80639;PMS5003;69992;60.170;24.692;2023-06-14T13:19:08;6;5;
80639;PMS5003;69992;60.170;24.692;2023-06-14T13:21:33;5;5;
80639;PMS5003;69992;60.170;24.692;2023-06-14T13:23:58;5;5;
80639;PMS5003;69992;60.170;24.692;2023-06-14T13:26:24;5;5;
80639;PMS5003;69992;60.170;24.692;2023-06-14T13:28:49;5;5;
80639;PMS5003;69992;60.170;24.692;2023-06-14T13:31:14;4;4;
80639;PMS5003;69992;60.170;24.692;2023-06-14T13:33:39;6;6;
80639;PMS5003;69992;60.170;24.692;2023-06-14T13:36:05;5;5;
80639;PMS5003;69992;60.170;24.692;2023-06-14T13:38:30;5;5;
80639;PMS5003;69992;60.170;24.692;2023-06-14T13:40:55;5;5;
80639;PMS5003;69992;60.170;24.692;2023-06-14T13:43:20;4;4;
80639;PMS5003;69992;60.170;24.692;2023-06-14T13:45:46;5;5;
80639;PMS5003;69992;60.170;24.692;2023-06-14T13:48:11;5;4;
80639;PMS5003;69992;60.170;24.692;2023-06-14T13:50:36;4;4;
80639;PMS5003;69992;60.170;24.692;2023-06-14T13:53:02;4;4;
80639;PMS5003;69992;60.170;24.692;2023-06-14T13:55:27;3;3;
80639;PMS5003;69992;60.170;24.692;2023-06-14T13:57:52;3;3;
80639;PMS5003;69992;60.170;24.692;2023-06-14T14:00:18;3;3;
80639;PMS5003;69992;60.170;24.692;2023-06-14T14:02:43;3;3;
80639;PMS5003;69992;60.170;24.692;2023-06-14T14:05:08;4;4;
80639;PMS5003;69992;60.170;24.692;2023-06-14T14:07:34;4;4;
80639;PMS5003;69992;60.170;24.692;2023-06-14T14:09:59;2;2;
80639;PMS5003;69992;60.170;24.692;2023-06-14T14:12:24;3;3;
80639;PMS5003;69992;60.170;24.692;2023-06-14T14:14:49;4;3;
80639;PMS5003;69992;60.170;24.692;2023-06-14T14:17:15;3;3;
80639;PMS5003;69992;60.170;24.692;2023-06-14T14:19:40;4;4;
80639;PMS5003;69992;60.170;24.692;2023-06-14T14:22:05;5;5;
80639;PMS5003;69992;60.170;24.692;2023-06-14T14:24:31;4;4;
80639;PMS5003;69992;60.170;24.692;2023-06-14T14:26:56;4;4;
80639;PMS5003;69992;60.170;24.692;2023-06-14T14:29:21;3;3;
80639;PMS5003;69992;60.170;24.692;2023-06-14T14:31:47;3;3;
80639;PMS5003;69992;60.170;24.692;2023-06-14T14:34:12;4;4;
80639;PMS5003;69992;60.170;24.692;2023-06-14T14:36:37;4;3;
80639;PMS5003;69992;60.170;24.692;2023-06-14T14:39:03;4;4;
80639;PMS5003;69992;60.170;24.692;2023-06-14T14:41:28;5;5;
80639;PMS5003;69992;60.170;24.692;2023-06-14T14:43:53;3;3;
80639;PMS5003;69992;60.170;24.692;2023-06-14T14:46:18;3;3;
80639;PMS5003;69992;60.170;24.692;2023-06-14T14:48:44;4;4;
80639;PMS5003;69992;60.170;24.692;2023-06-14T14:51:09;5;5;
80639;PMS5003;69992;60.170;24.692;2023-06-14T14:53:34;5;5;
80639;PMS5003;69992;60.170;24.692;2023-06-14T14:56:00;5;5;
80639;PMS5003;69992;60.170;24.692;2023-06-14T14:58:25;4;4;
80639;PMS5003;69992;60.170;24.692;2023-06-14T15:00:50;4;4;
80639;PMS5003;69992;60.170;24.692;2023-06-14T15:03:16;7;7;
80639;PMS5003;69992;60.170;24.692;2023-06-14T15:05:41;5;5;
80639;PMS5003;69992;60.170;24.692;2023-06-14T15:08:06;5;5;
80639;PMS5003;69992;60.170;24.692;2023-06-14T15:10:31;4;4;
80639;PMS5003;69992;60.170;24.692;2023-06-14T15:12:57;5;5;
80639;PMS5003;69992;60.170;24.692;2023-06-14T15:15:22;4;4;
80639;PMS5003;69992;60.170;24.692;2023-06-14T15:17:47;5;5;
80639;PMS5003;69992;60.170;24.692;2023-06-14T15:20:13;4;4;
80639;PMS5003;69992;60.170;24.692;2023-06-14T15:22:38;6;6;
80639;PMS5003;69992;60.170;24.692;2023-06-14T15:25:03;6;6;
80639;PMS5003;69992;60.170;24.692;2023-06-14T15:27:29;5;5;
80639;PMS5003;69992;60.170;24.692;2023-06-14T15:29:54;6;6;
80639;PMS5003;69992;60.170;24.692;2023-06-14T15:32:19;5;5;
80639;PMS5003;69992;60.170;24.692;2023-06-14T15:34:44;5;5;
80639;PMS5003;69992;60.170;24.692;2023-06-14T15:37:10;4;4;
80639;PMS5003;69992;60.170;24.692;2023-06-14T15:39:35;5;5;
80639;PMS5003;69992;60.170;24.692;2023-06-14T15:42:00;4;4;
80639;PMS5003;69992;60.170;24.692;2023-06-14T15:44:26;5;5;
80639;PMS5003;69992;60.170;24.692;2023-06-14T15:46:51;6;5;
80639;PMS5003;69992;60.170;24.692;2023-06-14T15:49:16;6;6;
80639;PMS5003;69992;60.170;24.692;2023-06-14T15:51:42;4;4;
80639;PMS5003;69992;60.170;24.692;2023-06-14T15:54:07;5;5;
80639;PMS5003;69992;60.170;24.692;2023-06-14T15:56:32;5;5;
80639;PMS5003;69992;60.170;24.692;2023-06-14T15:58:58;6;6;
80639;PMS5003;69992;60.170;24.692;2023-06-14T16:01:23;6;6;
80639;PMS5003;69992;60.170;24.692;2023-06-14T16:03:48;6;6;
80639;PMS5003;69992;60.170;24.692;2023-06-14T16:06:14;5;4;
80639;PMS5003;69992;60.170;24.692;2023-06-14T16:08:39;7;6;
80639;PMS5003;69992;60.170;24.692;2023-06-14T16:11:04;4;4;
80639;PMS5003;69992;60.170;24.692;2023-06-14T16:13:30;5;5;
80639;PMS5003;69992;60.170;24.692;2023-06-14T16:15:55;5;5;
80639;PMS5003;69992;60.170;24.692;2023-06-14T16:18:20;4;4;
80639;PMS5003;69992;60.170;24.692;2023-06-14T16:20:46;6;6;
80639;PMS5003;69992;60.170;24.692;2023-06-14T16:23:11;7;7;